Coats - southern half: Past 24 Hour Conditions

 

Gjoa Haven Airport

08:00 AM MDT 02 October 2014
This table is a summary of hourly weather conditions for the past 24 hours.
Date / Time
(MDT)
Wind(knots) Conditions Visibility(km) Pressure(kPa) Air tempC) Relative humidity(%) Dew pointC) Wind Chill
02 October 2014
8:00 N 10 Cloudy 24 101.8 -8 91 -10 -16
7:00 N 10 Mostly Cloudy 24 101.8 -9 88 -11 -17
6:00 N 12 Mostly Cloudy 24 101.9 -9 90 -11 -17
5:00 N 13 Mostly Cloudy 16 101.9 -9 89 -11 -18
4:00 N 11 Cloudy 16 101.9 -9 90 -11 -17
3:00 N 10 Mostly Cloudy 16 101.9 -10 93 -11 -17
2:00 NNE 7 Mostly Cloudy 16 101.9 -9 92 -10 -15
1:00 N 9 Clear 16 101.9 -10 93 -11 -17
0:00 NNE 11 Clear 16 101.9 -9 92 -10 -17
01 October 2014
23:00 NNE 9 Clear 16 102.0 -9 94 -9 -15
22:00 NNE 12 Clear 16 102.0 -9 91 -10 -16
21:00 NNE 13 Clear 16 102.0 -8 92 -10 -17
20:00 NNE 14 Clear 16 102.0 -9 90 -10 -17
19:00 NNE 15 Clear 16 102.0 -9 91 -10 -18
18:00 N 17 Clear 16 101.9 -8 95 -9 -18
17:00 N 13 gust 20 Sunny 16 102.0 -7 93 -8 -15
16:00 NNW 13 Sunny 16 102.0 -7 93 -8 -15
15:00 N 16 Sunny 24 102.0 -7 93 -8 -16
14:00 N 14 Haze 24 102.0 -7 88 -9 -15
13:00 NNW 15 Mainly Sunny 24 102.0 -7 88 -9 -16
12:00 NW 13 Mainly Sunny 24 102.1 -8 88 -9 -16
11:00 NNW 15 Mainly Sunny 24 102.0 -8 92 -9 -17
10:00 NNW 16 Partly Cloudy 24 102.1 -9 93 -10 -18
9:00 NNW 18 Mainly Sunny 24 102.1 -9 94 -10 -19
8:00 NNW 14 Mainly Sunny 24 102.1 -9 94 -10 -18
 
Map of Arctic - Eastern Arctic marine weather areas Baker Lake Airport Chesterfield Inlet Airport Coral Harbour Airport Gjoa Haven Airport Kugaaruk Airport Rankin Inlet Airport Shepherd Bay Airport Whale Cove Airport Arctic Bay Brevoort Island Qikiqtarjuaq Airport Cape Dorset Airport Cape Dyer Cape Hooper Clyde Airport Grise Fiord Airport Hall Beach Airport Igloolik Airport Iqaluit Airport Longstaff Bluff Pangnirtung Airport Pond Inlet Airport Repulse Bay Airport Resolute Airport Resolution Island Rowley Island Airport Taloyoak Airport Wager Bay Akulivik Airport Ivujivik Airport Puvirnituq Airport Kangiqsujuaq Airport Kangirsuk Airport Quaqtaq Airport Tasiujaq Airport Cape Kakkiviak Cape Kiglapait Nain Airport Saglek Cape Mercy Kimmirut Airport Aupaluk Airport Salluit Airport Kangiqsualujjuaq Airport Fort Ross
Legend: buoyBuoy land stationLand Station